sensor_id;sensor_type;location;lat;lon;timestamp;temperature;humidity
7206;DHT22;3644;53.480;10.004;2023-11-21T00:01:54;11.00;99.90
7206;DHT22;3644;53.480;10.004;2023-11-21T00:04:20;10.70;99.90
7206;DHT22;3644;53.480;10.004;2023-11-21T00:06:46;10.80;99.90
7206;DHT22;3644;53.480;10.004;2023-11-21T00:09:13;10.80;99.90
7206;DHT22;3644;53.480;10.004;2023-11-21T00:11:41;10.60;99.90
7206;DHT22;3644;53.480;10.004;2023-11-21T00:14:06;10.50;99.90
7206;DHT22;3644;53.480;10.004;2023-11-21T00:16:33;10.40;99.90
7206;DHT22;3644;53.480;10.004;2023-11-21T00:18:59;10.40;99.90
7206;DHT22;3644;53.480;10.004;2023-11-21T00:21:24;10.50;99.90
7206;DHT22;3644;53.480;10.004;2023-11-21T00:23:50;10.20;99.90
7206;DHT22;3644;53.480;10.004;2023-11-21T00:26:15;10.40;99.90
7206;DHT22;3644;53.480;10.004;2023-11-21T00:28:41;10.20;99.90
7206;DHT22;3644;53.480;10.004;2023-11-21T00:31:07;10.00;99.90
7206;DHT22;3644;53.480;10.004;2023-11-21T00:33:32;10.00;99.90
7206;DHT22;3644;53.480;10.004;2023-11-21T00:35:58;9.80;99.90
7206;DHT22;3644;53.480;10.004;2023-11-21T00:38:23;9.80;99.90
7206;DHT22;3644;53.480;10.004;2023-11-21T00:40:49;9.80;99.90
7206;DHT22;3644;53.480;10.004;2023-11-21T00:43:15;10.00;99.90
7206;DHT22;3644;53.480;10.004;2023-11-21T00:45:40;10.00;99.90
7206;DHT22;3644;53.480;10.004;2023-11-21T00:48:06;10.10;99.90
7206;DHT22;3644;53.480;10.004;2023-11-21T00:50:33;10.10;99.90
7206;DHT22;3644;53.480;10.004;2023-11-21T00:52:59;10.10;99.90
7206;DHT22;3644;53.480;10.004;2023-11-21T00:55:24;9.70;99.90
7206;DHT22;3644;53.480;10.004;2023-11-21T00:57:50;9.70;99.90
7206;DHT22;3644;53.480;10.004;2023-11-21T01:00:16;9.60;99.90
7206;DHT22;3644;53.480;10.004;2023-11-21T01:02:44;9.40;99.90
7206;DHT22;3644;53.480;10.004;2023-11-21T01:05:10;9.10;99.90
7206;DHT22;3644;53.480;10.004;2023-11-21T01:07:36;9.20;99.90
7206;DHT22;3644;53.480;10.004;2023-11-21T01:10:03;9.30;99.90
7206;DHT22;3644;53.480;10.004;2023-11-21T01:12:31;9.40;99.90
7206;DHT22;3644;53.480;10.004;2023-11-21T01:14:56;9.40;99.90
7206;DHT22;3644;53.480;10.004;2023-11-21T01:17:25;9.20;99.90
7206;DHT22;3644;53.480;10.004;2023-11-21T01:19:51;9.00;99.90
7206;DHT22;3644;53.480;10.004;2023-11-21T01:22:16;9.10;99.90
7206;DHT22;3644;53.480;10.004;2023-11-21T01:24:43;9.20;99.90
7206;DHT22;3644;53.480;10.004;2023-11-21T01:27:08;9.20;99.90
7206;DHT22;3644;53.480;10.004;2023-11-21T01:29:34;9.00;99.90
7206;DHT22;3644;53.480;10.004;2023-11-21T01:32:02;8.90;99.90
7206;DHT22;3644;53.480;10.004;2023-11-21T01:34:27;9.00;99.90
7206;DHT22;3644;53.480;10.004;2023-11-21T01:36:53;9.20;99.90
7206;DHT22;3644;53.480;10.004;2023-11-21T01:39:19;9.20;99.90
7206;DHT22;3644;53.480;10.004;2023-11-21T01:41:49;8.90;99.90
7206;DHT22;3644;53.480;10.004;2023-11-21T01:44:15;8.80;99.90
7206;DHT22;3644;53.480;10.004;2023-11-21T01:46:42;8.80;99.90
7206;DHT22;3644;53.480;10.004;2023-11-21T01:49:09;9.00;99.90
7206;DHT22;3644;53.480;10.004;2023-11-21T01:51:41;9.30;99.90
7206;DHT22;3644;53.480;10.004;2023-11-21T01:54:09;9.50;99.90
7206;DHT22;3644;53.480;10.004;2023-11-21T01:56:35;9.30;99.90
7206;DHT22;3644;53.480;10.004;2023-11-21T01:59:01;9.20;99.90
7206;DHT22;3644;53.480;10.004;2023-11-21T02:01:26;9.10;99.90
7206;DHT22;3644;53.480;10.004;2023-11-21T02:03:51;9.00;99.90
7206;DHT22;3644;53.480;10.004;2023-11-21T02:06:18;9.40;99.90
7206;DHT22;3644;53.480;10.004;2023-11-21T02:08:43;9.20;99.90
7206;DHT22;3644;53.480;10.004;2023-11-21T02:11:10;9.40;99.90
7206;DHT22;3644;53.480;10.004;2023-11-21T02:13:38;9.30;99.90
7206;DHT22;3644;53.480;10.004;2023-11-21T02:16:04;9.30;99.90
7206;DHT22;3644;53.480;10.004;2023-11-21T02:18:31;9.10;99.90
7206;DHT22;3644;53.480;10.004;2023-11-21T02:20:57;8.90;99.90
7206;DHT22;3644;53.480;10.004;2023-11-21T02:23:22;9.10;99.90
7206;DHT22;3644;53.480;10.004;2023-11-21T02:25:48;9.40;99.90
7206;DHT22;3644;53.480;10.004;2023-11-21T02:28:14;9.60;99.90
7206;DHT22;3644;53.480;10.004;2023-11-21T02:30:41;9.60;99.90
7206;DHT22;3644;53.480;10.004;2023-11-21T02:33:08;9.60;99.90
7206;DHT22;3644;53.480;10.004;2023-11-21T02:35:33;9.50;99.90
7206;DHT22;3644;53.480;10.004;2023-11-21T02:38:00;9.70;99.90
7206;DHT22;3644;53.480;10.004;2023-11-21T02:40:25;10.10;99.90
7206;DHT22;3644;53.480;10.004;2023-11-21T02:42:51;10.40;99.90
7206;DHT22;3644;53.480;10.004;2023-11-21T02:45:18;10.50;99.90
7206;DHT22;3644;53.480;10.004;2023-11-21T02:47:46;10.20;99.90
7206;DHT22;3644;53.480;10.004;2023-11-21T02:50:11;9.80;99.90
7206;DHT22;3644;53.480;10.004;2023-11-21T02:52:37;9.80;99.90
7206;DHT22;3644;53.480;10.004;2023-11-21T02:55:03;9.80;99.90
7206;DHT22;3644;53.480;10.004;2023-11-21T02:57:29;9.80;99.90
7206;DHT22;3644;53.480;10.004;2023-11-21T02:59:54;9.80;99.90
7206;DHT22;3644;53.480;10.004;2023-11-21T03:02:20;10.00;99.90
7206;DHT22;3644;53.480;10.004;2023-11-21T03:04:46;9.90;99.90
7206;DHT22;3644;53.480;10.004;2023-11-21T03:07:13;9.90;99.90
7206;DHT22;3644;53.480;10.004;2023-11-21T03:09:39;9.40;99.90
7206;DHT22;3644;53.480;10.004;2023-11-21T03:12:05;9.40;99.90
7206;DHT22;3644;53.480;10.004;2023-11-21T03:14:30;9.60;99.90
7206;DHT22;3644;53.480;10.004;2023-11-21T03:16:56;9.80;99.90
7206;DHT22;3644;53.480;10.004;2023-11-21T03:19:22;9.30;99.90
7206;DHT22;3644;53.480;10.004;2023-11-21T03:21:48;9.10;99.90
7206;DHT22;3644;53.480;10.004;2023-11-21T03:24:14;9.10;99.90
7206;DHT22;3644;53.480;10.004;2023-11-21T03:26:44;9.10;99.90
7206;DHT22;3644;53.480;10.004;2023-11-21T03:29:10;9.30;99.90
7206;DHT22;3644;53.480;10.004;2023-11-21T03:31:35;9.60;99.90
7206;DHT22;3644;53.480;10.004;2023-11-21T03:34:01;9.30;99.90
7206;DHT22;3644;53.480;10.004;2023-11-21T03:36:27;9.10;99.90
7206;DHT22;3644;53.480;10.004;2023-11-21T03:38:52;9.10;99.90
7206;DHT22;3644;53.480;10.004;2023-11-21T03:41:18;9.00;99.90
7206;DHT22;3644;53.480;10.004;2023-11-21T03:43:44;8.80;99.90
7206;DHT22;3644;53.480;10.004;2023-11-21T03:46:09;8.80;99.90
7206;DHT22;3644;53.480;10.004;2023-11-21T03:48:35;9.10;99.90
7206;DHT22;3644;53.480;10.004;2023-11-21T03:51:01;9.20;99.90
7206;DHT22;3644;53.480;10.004;2023-11-21T03:53:26;9.30;99.90
7206;DHT22;3644;53.480;10.004;2023-11-21T03:55:52;9.40;99.90
7206;DHT22;3644;53.480;10.004;2023-11-21T03:58:17;9.60;99.90
7206;DHT22;3644;53.480;10.004;2023-11-21T04:00:43;9.80;99.90
7206;DHT22;3644;53.480;10.004;2023-11-21T04:03:08;10.00;99.90
7206;DHT22;3644;53.480;10.004;2023-11-21T04:05:34;10.00;99.90
7206;DHT22;3644;53.480;10.004;2023-11-21T04:07:59;9.90;99.90
7206;DHT22;3644;53.480;10.004;2023-11-21T04:10:25;9.80;99.90
7206;DHT22;3644;53.480;10.004;2023-11-21T04:12:50;9.90;99.90
7206;DHT22;3644;53.480;10.004;2023-11-21T04:15:15;10.00;99.90
7206;DHT22;3644;53.480;10.004;2023-11-21T04:17:42;9.90;99.90
7206;DHT22;3644;53.480;10.004;2023-11-21T04:20:08;9.50;99.90
7206;DHT22;3644;53.480;10.004;2023-11-21T04:22:39;9.60;99.90
7206;DHT22;3644;53.480;10.004;2023-11-21T04:25:15;9.30;99.90
7206;DHT22;3644;53.480;10.004;2023-11-21T04:27:42;9.40;99.90
7206;DHT22;3644;53.480;10.004;2023-11-21T04:30:11;9.30;99.90
7206;DHT22;3644;53.480;10.004;2023-11-21T04:32:37;9.50;99.90
7206;DHT22;3644;53.480;10.004;2023-11-21T04:35:04;9.40;99.90
7206;DHT22;3644;53.480;10.004;2023-11-21T04:37:30;9.40;99.90
7206;DHT22;3644;53.480;10.004;2023-11-21T04:39:55;9.50;99.90
7206;DHT22;3644;53.480;10.004;2023-11-21T04:42:21;9.70;99.90
7206;DHT22;3644;53.480;10.004;2023-11-21T04:44:47;9.90;99.90
7206;DHT22;3644;53.480;10.004;2023-11-21T04:47:12;9.90;99.90
7206;DHT22;3644;53.480;10.004;2023-11-21T04:49:39;9.90;99.90
7206;DHT22;3644;53.480;10.004;2023-11-21T04:52:05;9.80;99.90
7206;DHT22;3644;53.480;10.004;2023-11-21T04:54:30;9.80;99.90
7206;DHT22;3644;53.480;10.004;2023-11-21T04:56:56;9.50;99.90
7206;DHT22;3644;53.480;10.004;2023-11-21T04:59:22;9.40;99.90
7206;DHT22;3644;53.480;10.004;2023-11-21T05:01:50;9.60;99.90
7206;DHT22;3644;53.480;10.004;2023-11-21T05:04:16;9.60;99.90
7206;DHT22;3644;53.480;10.004;2023-11-21T05:06:41;9.10;99.90
7206;DHT22;3644;53.480;10.004;2023-11-21T05:09:07;9.00;99.90
7206;DHT22;3644;53.480;10.004;2023-11-21T05:11:37;9.30;99.90
7206;DHT22;3644;53.480;10.004;2023-11-21T05:14:02;9.40;99.90
7206;DHT22;3644;53.480;10.004;2023-11-21T05:16:29;9.50;99.90
7206;DHT22;3644;53.480;10.004;2023-11-21T05:18:54;9.50;99.90
7206;DHT22;3644;53.480;10.004;2023-11-21T05:21:26;9.60;99.90
7206;DHT22;3644;53.480;10.004;2023-11-21T05:23:51;9.50;99.90
7206;DHT22;3644;53.480;10.004;2023-11-21T05:26:17;9.10;99.90
7206;DHT22;3644;53.480;10.004;2023-11-21T05:28:42;9.10;99.90
7206;DHT22;3644;53.480;10.004;2023-11-21T05:31:08;8.90;99.90
7206;DHT22;3644;53.480;10.004;2023-11-21T05:33:33;9.00;99.90
7206;DHT22;3644;53.480;10.004;2023-11-21T05:35:59;9.10;99.90
7206;DHT22;3644;53.480;10.004;2023-11-21T05:38:24;9.00;99.90
7206;DHT22;3644;53.480;10.004;2023-11-21T05:40:50;9.20;99.90
7206;DHT22;3644;53.480;10.004;2023-11-21T05:43:15;9.30;99.90
7206;DHT22;3644;53.480;10.004;2023-11-21T05:45:41;9.70;99.90
7206;DHT22;3644;53.480;10.004;2023-11-21T05:48:06;9.80;99.90
7206;DHT22;3644;53.480;10.004;2023-11-21T05:50:32;9.60;99.90
7206;DHT22;3644;53.480;10.004;2023-11-21T05:52:58;9.50;99.90
7206;DHT22;3644;53.480;10.004;2023-11-21T05:55:26;9.40;99.90
7206;DHT22;3644;53.480;10.004;2023-11-21T05:57:51;9.20;99.90
7206;DHT22;3644;53.480;10.004;2023-11-21T06:00:17;9.40;99.90
7206;DHT22;3644;53.480;10.004;2023-11-21T06:02:48;9.30;99.90
7206;DHT22;3644;53.480;10.004;2023-11-21T06:05:16;9.20;99.90
7206;DHT22;3644;53.480;10.004;2023-11-21T06:07:43;9.30;99.90
7206;DHT22;3644;53.480;10.004;2023-11-21T06:10:10;9.20;99.90
7206;DHT22;3644;53.480;10.004;2023-11-21T06:12:37;9.40;99.90
7206;DHT22;3644;53.480;10.004;2023-11-21T06:15:06;9.50;99.90
7206;DHT22;3644;53.480;10.004;2023-11-21T06:17:34;9.20;99.90
7206;DHT22;3644;53.480;10.004;2023-11-21T06:20:03;8.90;99.90
7206;DHT22;3644;53.480;10.004;2023-11-21T06:22:35;9.10;99.90
7206;DHT22;3644;53.480;10.004;2023-11-21T06:25:01;9.10;99.90
7206;DHT22;3644;53.480;10.004;2023-11-21T06:27:27;9.20;99.90
7206;DHT22;3644;53.480;10.004;2023-11-21T06:29:53;9.20;99.90
7206;DHT22;3644;53.480;10.004;2023-11-21T06:32:18;8.90;99.90
7206;DHT22;3644;53.480;10.004;2023-11-21T06:34:45;8.80;99.90
7206;DHT22;3644;53.480;10.004;2023-11-21T06:37:11;8.90;99.90
7206;DHT22;3644;53.480;10.004;2023-11-21T06:39:37;8.80;99.90
7206;DHT22;3644;53.480;10.004;2023-11-21T06:42:03;8.70;99.90
7206;DHT22;3644;53.480;10.004;2023-11-21T06:44:29;8.60;99.90
7206;DHT22;3644;53.480;10.004;2023-11-21T06:46:59;8.90;99.90
7206;DHT22;3644;53.480;10.004;2023-11-21T06:49:24;9.20;99.90
7206;DHT22;3644;53.480;10.004;2023-11-21T06:51:51;9.20;99.90
7206;DHT22;3644;53.480;10.004;2023-11-21T06:54:16;9.00;99.90
7206;DHT22;3644;53.480;10.004;2023-11-21T06:56:42;8.80;99.90
7206;DHT22;3644;53.480;10.004;2023-11-21T06:59:07;8.90;99.90
7206;DHT22;3644;53.480;10.004;2023-11-21T07:01:34;9.20;99.90
7206;DHT22;3644;53.480;10.004;2023-11-21T07:04:04;9.10;99.90
7206;DHT22;3644;53.480;10.004;2023-11-21T07:06:30;9.40;99.90
7206;DHT22;3644;53.480;10.004;2023-11-21T07:08:56;9.50;99.90
7206;DHT22;3644;53.480;10.004;2023-11-21T07:11:21;9.60;99.90
7206;DHT22;3644;53.480;10.004;2023-11-21T07:13:48;9.40;99.90
7206;DHT22;3644;53.480;10.004;2023-11-21T07:16:13;9.10;99.90
7206;DHT22;3644;53.480;10.004;2023-11-21T07:18:40;9.30;99.90
7206;DHT22;3644;53.480;10.004;2023-11-21T07:21:05;9.70;99.90
7206;DHT22;3644;53.480;10.004;2023-11-21T07:23:31;9.50;99.90
7206;DHT22;3644;53.480;10.004;2023-11-21T07:25:57;9.70;99.90
7206;DHT22;3644;53.480;10.004;2023-11-21T07:28:24;9.90;99.90
7206;DHT22;3644;53.480;10.004;2023-11-21T07:30:49;9.80;99.90
7206;DHT22;3644;53.480;10.004;2023-11-21T07:33:15;9.60;99.90
7206;DHT22;3644;53.480;10.004;2023-11-21T07:35:41;9.30;99.90
7206;DHT22;3644;53.480;10.004;2023-11-21T07:38:07;9.20;99.90
7206;DHT22;3644;53.480;10.004;2023-11-21T07:40:32;9.20;99.90
7206;DHT22;3644;53.480;10.004;2023-11-21T07:42:58;9.00;99.90
7206;DHT22;3644;53.480;10.004;2023-11-21T07:45:25;9.00;99.90
7206;DHT22;3644;53.480;10.004;2023-11-21T07:47:53;8.70;99.90
7206;DHT22;3644;53.480;10.004;2023-11-21T07:50:19;9.00;99.90
7206;DHT22;3644;53.480;10.004;2023-11-21T07:52:45;9.20;99.90
7206;DHT22;3644;53.480;10.004;2023-11-21T07:55:11;9.20;99.90
7206;DHT22;3644;53.480;10.004;2023-11-21T07:57:37;9.30;99.90
7206;DHT22;3644;53.480;10.004;2023-11-21T08:00:04;9.20;99.90
7206;DHT22;3644;53.480;10.004;2023-11-21T08:02:32;9.00;99.90
7206;DHT22;3644;53.480;10.004;2023-11-21T08:04:57;9.00;99.90
7206;DHT22;3644;53.480;10.004;2023-11-21T08:07:22;9.10;99.90
7206;DHT22;3644;53.480;10.004;2023-11-21T08:09:48;9.20;99.90
7206;DHT22;3644;53.480;10.004;2023-11-21T08:12:15;9.20;99.90
7206;DHT22;3644;53.480;10.004;2023-11-21T08:14:41;8.90;99.90
7206;DHT22;3644;53.480;10.004;2023-11-21T08:17:06;9.10;99.90
7206;DHT22;3644;53.480;10.004;2023-11-21T08:19:32;9.30;99.90
7206;DHT22;3644;53.480;10.004;2023-11-21T08:21:58;9.30;99.90
7206;DHT22;3644;53.480;10.004;2023-11-21T08:24:24;9.20;99.90
7206;DHT22;3644;53.480;10.004;2023-11-21T08:26:50;9.10;99.90
7206;DHT22;3644;53.480;10.004;2023-11-21T08:29:17;9.10;99.90
7206;DHT22;3644;53.480;10.004;2023-11-21T08:31:43;9.30;99.90
7206;DHT22;3644;53.480;10.004;2023-11-21T08:34:12;9.10;99.90
7206;DHT22;3644;53.480;10.004;2023-11-21T08:36:44;9.10;99.90
7206;DHT22;3644;53.480;10.004;2023-11-21T08:39:10;9.00;99.90
7206;DHT22;3644;53.480;10.004;2023-11-21T08:41:36;9.20;99.90
7206;DHT22;3644;53.480;10.004;2023-11-21T08:44:02;9.10;99.90
7206;DHT22;3644;53.480;10.004;2023-11-21T08:46:32;9.10;99.90
7206;DHT22;3644;53.480;10.004;2023-11-21T08:49:00;9.10;99.90
7206;DHT22;3644;53.480;10.004;2023-11-21T08:51:26;9.30;99.90
7206;DHT22;3644;53.480;10.004;2023-11-21T08:53:51;9.30;99.90
7206;DHT22;3644;53.480;10.004;2023-11-21T08:56:17;9.30;99.90
7206;DHT22;3644;53.480;10.004;2023-11-21T08:58:44;9.40;99.90
7206;DHT22;3644;53.480;10.004;2023-11-21T09:01:09;9.10;99.90
7206;DHT22;3644;53.480;10.004;2023-11-21T09:03:35;8.90;99.90
7206;DHT22;3644;53.480;10.004;2023-11-21T09:06:00;9.00;99.90
7206;DHT22;3644;53.480;10.004;2023-11-21T09:08:26;9.10;99.90
7206;DHT22;3644;53.480;10.004;2023-11-21T09:10:53;9.10;99.90
7206;DHT22;3644;53.480;10.004;2023-11-21T09:13:19;9.30;99.90
7206;DHT22;3644;53.480;10.004;2023-11-21T09:15:44;9.40;99.90
7206;DHT22;3644;53.480;10.004;2023-11-21T09:18:13;9.30;99.90
7206;DHT22;3644;53.480;10.004;2023-11-21T09:20:38;8.90;99.90
7206;DHT22;3644;53.480;10.004;2023-11-21T09:23:04;8.90;99.90
7206;DHT22;3644;53.480;10.004;2023-11-21T09:25:30;9.10;99.90
7206;DHT22;3644;53.480;10.004;2023-11-21T09:27:55;9.30;99.90
7206;DHT22;3644;53.480;10.004;2023-11-21T09:30:22;9.60;99.90
7206;DHT22;3644;53.480;10.004;2023-11-21T09:32:50;9.70;99.90
7206;DHT22;3644;53.480;10.004;2023-11-21T09:35:16;9.30;99.90
7206;DHT22;3644;53.480;10.004;2023-11-21T09:37:45;8.90;99.90
7206;DHT22;3644;53.480;10.004;2023-11-21T09:40:11;9.10;99.90
7206;DHT22;3644;53.480;10.004;2023-11-21T09:42:53;9.20;99.90
7206;DHT22;3644;53.480;10.004;2023-11-21T09:47:53;9.30;99.90
7206;DHT22;3644;53.480;10.004;2023-11-21T09:50:21;9.60;99.90
7206;DHT22;3644;53.480;10.004;2023-11-21T09:53:22;9.60;99.90
7206;DHT22;3644;53.480;10.004;2023-11-21T09:55:51;9.60;99.90
7206;DHT22;3644;53.480;10.004;2023-11-21T09:58:18;9.60;99.90
7206;DHT22;3644;53.480;10.004;2023-11-21T10:00:50;9.50;99.90
7206;DHT22;3644;53.480;10.004;2023-11-21T10:03:17;9.50;99.90
7206;DHT22;3644;53.480;10.004;2023-11-21T10:05:43;9.80;99.90
7206;DHT22;3644;53.480;10.004;2023-11-21T10:08:12;9.80;99.90
7206;DHT22;3644;53.480;10.004;2023-11-21T10:10:45;9.90;99.90
7206;DHT22;3644;53.480;10.004;2023-11-21T10:13:12;10.10;99.90
7206;DHT22;3644;53.480;10.004;2023-11-21T10:15:42;10.00;99.90
7206;DHT22;3644;53.480;10.004;2023-11-21T10:18:14;9.80;99.90
7206;DHT22;3644;53.480;10.004;2023-11-21T10:20:40;10.00;99.90
7206;DHT22;3644;53.480;10.004;2023-11-21T10:23:06;10.00;99.90
7206;DHT22;3644;53.480;10.004;2023-11-21T10:25:33;9.80;99.90
7206;DHT22;3644;53.480;10.004;2023-11-21T10:28:00;9.30;99.90
7206;DHT22;3644;53.480;10.004;2023-11-21T10:30:34;9.20;99.90
7206;DHT22;3644;53.480;10.004;2023-11-21T10:33:03;9.30;99.90
7206;DHT22;3644;53.480;10.004;2023-11-21T10:35:48;9.20;99.90
7206;DHT22;3644;53.480;10.004;2023-11-21T10:38:17;9.40;99.90
7206;DHT22;3644;53.480;10.004;2023-11-21T10:40:44;9.60;99.90
7206;DHT22;3644;53.480;10.004;2023-11-21T10:43:11;9.40;99.90
7206;DHT22;3644;53.480;10.004;2023-11-21T10:45:38;9.30;99.90
7206;DHT22;3644;53.480;10.004;2023-11-21T10:48:12;9.30;99.90
7206;DHT22;3644;53.480;10.004;2023-11-21T10:50:40;9.30;99.90
7206;DHT22;3644;53.480;10.004;2023-11-21T10:53:06;9.40;99.90
7206;DHT22;3644;53.480;10.004;2023-11-21T10:55:33;9.30;99.90
7206;DHT22;3644;53.480;10.004;2023-11-21T10:58:00;9.10;99.90
7206;DHT22;3644;53.480;10.004;2023-11-21T11:00:28;9.30;99.90
7206;DHT22;3644;53.480;10.004;2023-11-21T11:02:54;9.40;99.90
7206;DHT22;3644;53.480;10.004;2023-11-21T11:05:22;9.20;99.90
7206;DHT22;3644;53.480;10.004;2023-11-21T11:07:51;9.10;99.90
7206;DHT22;3644;53.480;10.004;2023-11-21T11:10:25;9.30;99.90
7206;DHT22;3644;53.480;10.004;2023-11-21T11:12:53;9.70;99.90
7206;DHT22;3644;53.480;10.004;2023-11-21T11:15:19;9.90;99.90
7206;DHT22;3644;53.480;10.004;2023-11-21T11:17:45;9.90;99.90
7206;DHT22;3644;53.480;10.004;2023-11-21T11:20:12;9.60;99.90
7206;DHT22;3644;53.480;10.004;2023-11-21T11:23:08;9.60;99.90
7206;DHT22;3644;53.480;10.004;2023-11-21T11:28:32;9.80;99.90
7206;DHT22;3644;53.480;10.004;2023-11-21T11:34:04;10.10;99.90
7206;DHT22;3644;53.480;10.004;2023-11-21T11:36:48;10.60;99.90
7206;DHT22;3644;53.480;10.004;2023-11-21T11:39:45;10.60;99.90
7206;DHT22;3644;53.480;10.004;2023-11-21T11:42:16;10.30;99.90
7206;DHT22;3644;53.480;10.004;2023-11-21T11:47:23;10.20;99.90
7206;DHT22;3644;53.480;10.004;2023-11-21T11:52:38;10.20;99.90
7206;DHT22;3644;53.480;10.004;2023-11-21T11:55:06;10.30;99.90
7206;DHT22;3644;53.480;10.004;2023-11-21T11:57:34;10.20;99.90
7206;DHT22;3644;53.480;10.004;2023-11-21T12:00:17;10.30;99.90
7206;DHT22;3644;53.480;10.004;2023-11-21T12:02:49;10.30;99.90
7206;DHT22;3644;53.480;10.004;2023-11-21T12:05:16;10.00;99.90
7206;DHT22;3644;53.480;10.004;2023-11-21T12:07:56;10.10;99.90
7206;DHT22;3644;53.480;10.004;2023-11-21T12:10:30;10.00;99.90
7206;DHT22;3644;53.480;10.004;2023-11-21T12:13:10;10.10;99.90
7206;DHT22;3644;53.480;10.004;2023-11-21T12:15:37;9.80;99.90
7206;DHT22;3644;53.480;10.004;2023-11-21T12:18:03;9.90;99.90
7206;DHT22;3644;53.480;10.004;2023-11-21T12:20:30;9.70;99.90
7206;DHT22;3644;53.480;10.004;2023-11-21T12:22:59;9.30;99.90
7206;DHT22;3644;53.480;10.004;2023-11-21T12:25:27;9.10;99.90
7206;DHT22;3644;53.480;10.004;2023-11-21T12:28:00;9.40;99.90
7206;DHT22;3644;53.480;10.004;2023-11-21T12:30:27;9.70;99.90
7206;DHT22;3644;53.480;10.004;2023-11-21T12:32:56;9.60;99.90
7206;DHT22;3644;53.480;10.004;2023-11-21T12:35:25;9.70;99.90
7206;DHT22;3644;53.480;10.004;2023-11-21T12:37:52;9.90;99.90
7206;DHT22;3644;53.480;10.004;2023-11-21T12:40:19;10.00;99.90
7206;DHT22;3644;53.480;10.004;2023-11-21T12:42:46;9.90;99.90
7206;DHT22;3644;53.480;10.004;2023-11-21T12:47:43;9.80;99.90
7206;DHT22;3644;53.480;10.004;2023-11-21T12:50:10;9.90;99.90
7206;DHT22;3644;53.480;10.004;2023-11-21T12:52:45;9.70;99.90
7206;DHT22;3644;53.480;10.004;2023-11-21T12:55:17;9.70;99.90
7206;DHT22;3644;53.480;10.004;2023-11-21T12:57:44;9.80;99.90
7206;DHT22;3644;53.480;10.004;2023-11-21T13:00:11;10.00;99.90
7206;DHT22;3644;53.480;10.004;2023-11-21T13:02:41;10.10;99.90
7206;DHT22;3644;53.480;10.004;2023-11-21T13:05:08;10.20;99.90
7206;DHT22;3644;53.480;10.004;2023-11-21T13:07:44;10.00;99.90
7206;DHT22;3644;53.480;10.004;2023-11-21T13:10:12;9.90;99.90
7206;DHT22;3644;53.480;10.004;2023-11-21T13:12:45;10.10;99.90
7206;DHT22;3644;53.480;10.004;2023-11-21T13:15:14;10.00;99.90
7206;DHT22;3644;53.480;10.004;2023-11-21T13:17:44;9.80;99.90
7206;DHT22;3644;53.480;10.004;2023-11-21T13:20:13;9.50;99.90
7206;DHT22;3644;53.480;10.004;2023-11-21T13:22:48;9.60;99.90
7206;DHT22;3644;53.480;10.004;2023-11-21T13:25:17;9.70;99.90
7206;DHT22;3644;53.480;10.004;2023-11-21T13:27:44;9.50;99.90
7206;DHT22;3644;53.480;10.004;2023-11-21T13:30:12;9.60;99.90
7206;DHT22;3644;53.480;10.004;2023-11-21T13:32:43;9.70;99.90
7206;DHT22;3644;53.480;10.004;2023-11-21T13:35:11;9.60;99.90
7206;DHT22;3644;53.480;10.004;2023-11-21T13:37:47;9.60;99.90
7206;DHT22;3644;53.480;10.004;2023-11-21T13:40:15;9.70;99.90
7206;DHT22;3644;53.480;10.004;2023-11-21T13:42:44;9.70;99.90
7206;DHT22;3644;53.480;10.004;2023-11-21T13:45:10;9.40;99.90
7206;DHT22;3644;53.480;10.004;2023-11-21T13:47:38;9.50;99.90
7206;DHT22;3644;53.480;10.004;2023-11-21T13:50:04;9.40;99.90
7206;DHT22;3644;53.480;10.004;2023-11-21T13:52:39;9.60;99.90
7206;DHT22;3644;53.480;10.004;2023-11-21T13:55:04;9.70;99.90
7206;DHT22;3644;53.480;10.004;2023-11-21T13:57:31;9.90;99.90
7206;DHT22;3644;53.480;10.004;2023-11-21T13:59:58;9.80;99.90
7206;DHT22;3644;53.480;10.004;2023-11-21T14:02:24;9.90;99.90
7206;DHT22;3644;53.480;10.004;2023-11-21T14:04:57;9.70;99.90
7206;DHT22;3644;53.480;10.004;2023-11-21T14:07:26;9.20;99.90
7206;DHT22;3644;53.480;10.004;2023-11-21T14:10:01;9.40;99.90
7206;DHT22;3644;53.480;10.004;2023-11-21T14:12:27;9.50;99.90
7206;DHT22;3644;53.480;10.004;2023-11-21T14:14:53;9.40;99.90
7206;DHT22;3644;53.480;10.004;2023-11-21T14:17:19;9.40;99.90
7206;DHT22;3644;53.480;10.004;2023-11-21T14:19:49;9.30;99.90
7206;DHT22;3644;53.480;10.004;2023-11-21T14:22:14;9.10;99.90
7206;DHT22;3644;53.480;10.004;2023-11-21T14:24:40;9.10;99.90
7206;DHT22;3644;53.480;10.004;2023-11-21T14:27:12;9.10;99.90
7206;DHT22;3644;53.480;10.004;2023-11-21T14:29:37;9.00;99.90
7206;DHT22;3644;53.480;10.004;2023-11-21T14:32:05;8.80;99.90
7206;DHT22;3644;53.480;10.004;2023-11-21T14:34:32;8.80;99.90
7206;DHT22;3644;53.480;10.004;2023-11-21T14:36:57;8.40;99.90
7206;DHT22;3644;53.480;10.004;2023-11-21T14:39:23;8.80;99.90
7206;DHT22;3644;53.480;10.004;2023-11-21T14:41:52;8.90;99.90
7206;DHT22;3644;53.480;10.004;2023-11-21T14:44:24;8.80;99.90
7206;DHT22;3644;53.480;10.004;2023-11-21T14:46:53;8.50;99.90
7206;DHT22;3644;53.480;10.004;2023-11-21T14:49:20;8.50;99.90
7206;DHT22;3644;53.480;10.004;2023-11-21T14:51:48;8.60;99.90
7206;DHT22;3644;53.480;10.004;2023-11-21T14:54:31;8.50;99.90
7206;DHT22;3644;53.480;10.004;2023-11-21T14:57:10;8.30;99.90
7206;DHT22;3644;53.480;10.004;2023-11-21T14:59:46;8.10;99.90
7206;DHT22;3644;53.480;10.004;2023-11-21T15:02:17;8.30;99.90
7206;DHT22;3644;53.480;10.004;2023-11-21T15:05:01;8.70;99.90
7206;DHT22;3644;53.480;10.004;2023-11-21T15:07:27;8.70;99.90
7206;DHT22;3644;53.480;10.004;2023-11-21T15:09:53;8.80;99.90
7206;DHT22;3644;53.480;10.004;2023-11-21T15:12:19;9.00;99.90
7206;DHT22;3644;53.480;10.004;2023-11-21T15:14:48;9.10;99.90
7206;DHT22;3644;53.480;10.004;2023-11-21T15:17:17;9.20;99.90
7206;DHT22;3644;53.480;10.004;2023-11-21T15:19:54;8.90;99.90
7206;DHT22;3644;53.480;10.004;2023-11-21T15:22:20;9.00;99.90
7206;DHT22;3644;53.480;10.004;2023-11-21T15:24:46;8.70;99.90
7206;DHT22;3644;53.480;10.004;2023-11-21T15:27:15;8.50;99.90
7206;DHT22;3644;53.480;10.004;2023-11-21T15:29:41;8.30;99.90
7206;DHT22;3644;53.480;10.004;2023-11-21T15:32:07;8.20;99.90
7206;DHT22;3644;53.480;10.004;2023-11-21T15:34:34;7.90;99.90
7206;DHT22;3644;53.480;10.004;2023-11-21T15:37:00;7.40;99.90
7206;DHT22;3644;53.480;10.004;2023-11-21T15:39:26;7.40;99.90
7206;DHT22;3644;53.480;10.004;2023-11-21T15:41:54;7.50;99.90
7206;DHT22;3644;53.480;10.004;2023-11-21T15:44:20;7.60;99.90
7206;DHT22;3644;53.480;10.004;2023-11-21T15:46:45;7.70;99.90
7206;DHT22;3644;53.480;10.004;2023-11-21T15:49:11;7.90;99.90
7206;DHT22;3644;53.480;10.004;2023-11-21T15:51:43;8.30;99.90
7206;DHT22;3644;53.480;10.004;2023-11-21T15:54:21;8.50;99.90
7206;DHT22;3644;53.480;10.004;2023-11-21T15:56:47;8.50;99.90
7206;DHT22;3644;53.480;10.004;2023-11-21T15:59:13;8.50;99.90
7206;DHT22;3644;53.480;10.004;2023-11-21T16:01:39;8.60;99.90
7206;DHT22;3644;53.480;10.004;2023-11-21T16:04:12;8.60;99.90
7206;DHT22;3644;53.480;10.004;2023-11-21T16:06:45;8.60;99.90
7206;DHT22;3644;53.480;10.004;2023-11-21T16:09:11;8.30;99.90
7206;DHT22;3644;53.480;10.004;2023-11-21T16:11:49;8.50;99.90
7206;DHT22;3644;53.480;10.004;2023-11-21T16:14:19;8.60;99.90
7206;DHT22;3644;53.480;10.004;2023-11-21T16:16:49;8.70;99.90
7206;DHT22;3644;53.480;10.004;2023-11-21T16:19:15;8.50;99.90